createdAt,value
2019-04-21T00:01:09.196Z,11.37
2019-04-21T00:03:50.127Z,13.83
2019-04-21T00:06:37.017Z,12.00
2019-04-21T00:09:21.043Z,11.70
2019-04-21T00:11:53.774Z,13.53
2019-04-21T00:14:08.967Z,10.20
2019-04-21T00:16:40.969Z,13.47
2019-04-21T00:19:14.485Z,13.23
2019-04-21T00:21:45.759Z,15.37
2019-04-21T00:24:25.019Z,11.77
2019-04-21T00:27:06.995Z,13.57
2019-04-21T00:32:08.717Z,11.90
2019-04-21T00:34:28.110Z,14.33
2019-04-21T00:37:09.452Z,15.27
2019-04-21T00:42:25.756Z,12.60
2019-04-21T00:44:51.973Z,14.23
2019-04-21T00:47:31.754Z,13.43
2019-04-21T00:50:02.253Z,13.80
2019-04-21T00:55:45.567Z,12.03
2019-04-21T00:58:18.435Z,13.30
2019-04-21T01:00:49.584Z,11.60
2019-04-21T01:03:20.616Z,12.87
2019-04-21T01:05:51.650Z,12.57
2019-04-21T01:08:21.740Z,11.63
2019-04-21T01:10:45.870Z,13.57
2019-04-21T01:13:45.619Z,15.70
2019-04-21T01:15:59.201Z,13.30
2019-04-21T01:18:32.656Z,13.10
2019-04-21T01:20:42.789Z,16.80
2019-04-21T01:23:19.225Z,15.93
2019-04-21T01:26:06.827Z,14.30
2019-04-21T01:28:39.925Z,15.27
2019-04-21T01:31:17.445Z,12.90
2019-04-21T01:33:57.493Z,13.57
2019-04-21T01:36:24.562Z,12.17
2019-04-21T01:39:08.412Z,15.20
2019-04-21T01:41:42.874Z,16.33
2019-04-21T01:44:14.898Z,14.27
2019-04-21T01:46:40.771Z,13.10
2019-04-21T01:49:11.486Z,14.27
2019-04-21T01:52:03.266Z,15.67
2019-04-21T01:54:52.248Z,13.00
2019-04-21T01:57:23.042Z,15.17
2019-04-21T01:59:56.520Z,15.40
2019-04-21T02:02:52.470Z,15.27
2019-04-21T02:05:18.828Z,13.37
2019-04-21T02:07:44.762Z,15.40
2019-04-21T02:10:17.953Z,15.80
2019-04-21T02:12:51.313Z,15.87
2019-04-21T02:15:31.271Z,15.97
2019-04-21T02:17:59.480Z,16.00
2019-04-21T02:20:22.991Z,17.73
2019-04-21T02:23:26.368Z,15.30
2019-04-21T02:25:44.690Z,14.37
2019-04-21T02:28:24.481Z,15.10
2019-04-21T02:31:05.893Z,15.17
2019-04-21T02:36:18.513Z,16.07
2019-04-21T02:38:39.164Z,13.87
2019-04-21T02:41:22.968Z,15.70
2019-04-21T02:43:46.518Z,14.90
2019-04-21T02:48:56.163Z,16.20
2019-04-21T02:51:28.021Z,14.93
2019-04-21T02:54:31.821Z,19.87
2019-04-21T02:56:35.794Z,18.60
2019-04-21T02:59:05.297Z,19.57
2019-04-21T03:01:50.415Z,14.70
2019-04-21T03:04:44.090Z,17.10
2019-04-21T03:09:49.529Z,14.23
2019-04-21T03:12:22.718Z,18.63
2019-04-21T03:17:43.908Z,16.93
2019-04-21T03:22:25.031Z,15.70
2019-04-21T03:38:05.768Z,16.93
2019-04-21T03:40:22.211Z,18.10
2019-04-21T03:43:01.940Z,14.73
2019-04-21T03:48:05.157Z,17.80
2019-04-21T03:50:41.084Z,17.37
2019-04-21T03:53:16.807Z,15.53
2019-04-21T03:58:23.927Z,14.70
2019-04-21T04:09:37.214Z,14.93
2019-04-21T04:12:05.147Z,20.10
2019-04-21T04:14:46.190Z,15.87
2019-04-21T04:19:44.572Z,16.90
2019-04-21T04:24:49.878Z,16.40
2019-04-21T04:27:36.903Z,18.50
2019-04-21T04:29:57.209Z,15.53
2019-04-21T04:32:23.530Z,15.33
2019-04-21T04:35:10.870Z,14.10
2019-04-21T04:37:32.203Z,14.57
2019-04-21T04:40:10.500Z,15.53
2019-04-21T04:42:47.857Z,17.00
2019-04-21T04:45:23.773Z,15.50
2019-04-21T04:47:44.921Z,16.20
2019-04-21T04:50:17.779Z,14.93
2019-04-21T04:55:22.056Z,20.07
2019-04-21T04:58:04.909Z,20.07
2019-04-21T05:05:36.290Z,16.40
2019-04-21T05:07:57.591Z,20.37
2019-04-21T05:10:38.526Z,16.93
2019-04-21T05:13:02.295Z,17.27
2019-04-21T05:18:02.915Z,14.93
2019-04-21T05:20:23.677Z,14.90
2019-04-21T05:23:06.272Z,15.67
2019-04-21T05:25:27.760Z,16.93
2019-04-21T05:28:02.590Z,18.67
2019-04-21T05:30:50.901Z,16.03
2019-04-21T05:33:39.914Z,17.07
2019-04-21T05:36:11.456Z,20.70
2019-04-21T05:38:55.516Z,19.17
2019-04-21T05:41:22.782Z,14.63
2019-04-21T05:43:56.513Z,15.97
2019-04-21T05:46:34.396Z,15.87
2019-04-21T05:49:06.806Z,16.90
2019-04-21T05:51:35.552Z,16.43
2019-04-21T05:54:23.056Z,17.33
2019-04-21T05:56:40.713Z,15.20
2019-04-21T05:59:13.517Z,16.63
2019-04-21T06:01:47.070Z,16.57
2019-04-21T06:04:34.100Z,15.33
2019-04-21T06:07:04.403Z,17.07
2019-04-21T06:09:35.215Z,16.90
2019-04-21T06:12:04.363Z,14.67
2019-04-21T06:14:45.994Z,15.60
2019-04-21T06:17:19.807Z,19.27
2019-04-21T06:22:14.873Z,17.87
2019-04-21T06:25:16.202Z,21.67
2019-04-21T06:27:22.932Z,13.83
2019-04-21T06:29:49.155Z,14.97
2019-04-21T06:32:36.066Z,16.90
2019-04-21T06:40:16.449Z,15.80
2019-04-21T06:42:34.087Z,16.87
2019-04-21T06:45:14.045Z,14.03
2019-04-21T06:47:47.238Z,15.20
2019-04-21T06:50:12.174Z,16.00
2019-04-21T06:52:52.159Z,15.23
2019-04-21T06:55:13.823Z,20.17
2019-04-21T06:57:45.715Z,16.43
2019-04-21T07:00:15.134Z,16.07
2019-04-21T07:05:15.380Z,15.53
2019-04-21T07:08:06.470Z,17.07
2019-04-21T07:10:17.214Z,15.37
2019-04-21T07:12:44.962Z,17.00
2019-04-21T07:15:17.009Z,14.27
2019-04-21T07:17:49.917Z,14.93
2019-04-21T07:20:21.821Z,14.33
2019-04-21T07:22:56.855Z,15.13
2019-04-21T07:25:32.659Z,15.23
2019-04-21T07:27:59.353Z,15.57
2019-04-21T07:33:19.329Z,15.27
2019-04-21T07:35:43.144Z,17.17
2019-04-21T07:38:16.707Z,14.87
2019-04-21T07:40:36.419Z,13.67
2019-04-21T07:43:05.720Z,11.80
2019-04-21T07:45:38.113Z,15.20
2019-04-21T07:48:19.078Z,14.13
2019-04-21T07:51:02.281Z,12.03
2019-04-21T07:53:55.747Z,13.73
2019-04-21T07:55:46.918Z,13.60
2019-04-21T07:58:36.415Z,12.50
2019-04-21T08:01:12.056Z,13.53
2019-04-21T08:03:43.920Z,12.80
2019-04-21T08:06:32.004Z,14.13
2019-04-21T08:08:42.165Z,11.67
2019-04-21T08:11:11.001Z,13.53
2019-04-21T08:16:20.400Z,14.80
2019-04-21T08:18:47.437Z,12.37
2019-04-21T08:21:11.127Z,14.47
2019-04-21T08:23:41.495Z,12.43
2019-04-21T08:26:16.611Z,12.77
2019-04-21T08:28:52.094Z,15.07
2019-04-21T08:31:25.788Z,12.23
2019-04-21T08:33:55.992Z,13.00
2019-04-21T08:38:59.853Z,15.33
2019-04-21T08:41:23.658Z,13.47
2019-04-21T08:43:58.484Z,15.13
2019-04-21T08:46:35.107Z,13.23
2019-04-21T08:49:00.845Z,15.33
2019-04-21T08:51:33.507Z,15.17
2019-04-21T08:54:09.207Z,14.43
2019-04-21T08:56:55.859Z,11.90
2019-04-21T08:59:47.155Z,12.00
2019-04-21T09:02:29.839Z,14.67
2019-04-21T09:05:00.209Z,16.70
2019-04-21T09:07:32.172Z,13.97
2019-04-21T09:09:57.850Z,15.77
2019-04-21T09:12:32.755Z,11.17
2019-04-21T09:15:01.249Z,13.37
2019-04-21T09:17:31.560Z,11.77
2019-04-21T09:20:13.050Z,12.77
2019-04-21T09:22:41.219Z,11.70
2019-04-21T09:25:19.374Z,13.03
2019-04-21T09:27:42.556Z,14.07
2019-04-21T09:30:03.474Z,11.43
2019-04-21T09:32:33.072Z,10.97
2019-04-21T09:35:05.680Z,12.80
2019-04-21T09:37:46.466Z,9.67
2019-04-21T09:40:06.775Z,9.50
2019-04-21T09:42:44.339Z,9.53
2019-04-21T09:45:10.028Z,10.30
2019-04-21T09:47:47.019Z,10.77
2019-04-21T09:50:10.301Z,10.17
2019-04-21T09:52:48.842Z,12.97
2019-04-21T09:55:17.508Z,10.30
2019-04-21T09:57:50.289Z,10.30
2019-04-21T10:00:22.389Z,12.13
2019-04-21T10:03:00.571Z,11.63
2019-04-21T10:05:23.495Z,12.80
2019-04-21T10:07:55.319Z,9.17
2019-04-21T10:10:27.513Z,10.00
2019-04-21T10:12:57.754Z,9.17
2019-04-21T10:15:28.286Z,10.57
2019-04-21T10:18:04.661Z,7.77
2019-04-21T10:20:36.357Z,11.10
2019-04-21T10:23:07.079Z,9.33
2019-04-21T10:25:41.033Z,8.87
2019-04-21T10:28:10.930Z,10.97
2019-04-21T10:30:42.668Z,10.50
2019-04-21T10:33:16.668Z,9.50
2019-04-21T10:35:46.746Z,10.20
2019-04-21T10:38:30.395Z,9.13
2019-04-21T10:40:55.133Z,10.87
2019-04-21T10:43:29.176Z,11.23
2019-04-21T10:46:01.253Z,9.10
2019-04-21T10:48:34.555Z,12.27
2019-04-21T10:51:03.691Z,11.40
2019-04-21T10:53:36.702Z,11.13
2019-04-21T10:56:16.977Z,9.07
2019-04-21T10:58:40.896Z,10.23
2019-04-21T11:01:16.795Z,11.40
2019-04-21T11:04:19.989Z,10.77
2019-04-21T11:06:39.208Z,11.20
2019-04-21T11:09:15.860Z,9.57
2019-04-21T11:11:49.561Z,7.27
2019-04-21T11:14:17.788Z,10.00
2019-04-21T11:16:49.072Z,10.47
2019-04-21T11:19:20.048Z,8.17
2019-04-21T11:21:52.562Z,8.40
2019-04-21T11:24:23.046Z,8.67
2019-04-21T11:26:53.799Z,9.17
2019-04-21T11:29:23.400Z,7.10
2019-04-21T11:31:54.831Z,7.10
2019-04-21T11:34:25.139Z,8.27
2019-04-21T11:36:56.349Z,7.83
2019-04-21T11:39:37.549Z,6.70
2019-04-21T11:41:59.624Z,7.37
2019-04-21T11:44:31.037Z,7.20
2019-04-21T11:47:00.631Z,7.40
2019-04-21T11:49:36.968Z,7.57
2019-04-21T11:52:11.607Z,7.47
2019-04-21T11:54:46.742Z,6.67
2019-04-21T11:57:22.740Z,6.43
2019-04-21T11:59:49.192Z,8.67
2019-04-21T12:02:19.435Z,7.00
2019-04-21T12:04:49.561Z,7.63
2019-04-21T12:07:19.690Z,8.00
2019-04-21T12:09:51.342Z,7.13
2019-04-21T12:12:25.428Z,7.17
2019-04-21T12:14:55.012Z,10.17
2019-04-21T12:17:25.923Z,7.67
2019-04-21T12:19:55.223Z,9.63
2019-04-21T12:22:28.906Z,8.67
2019-04-21T12:24:55.871Z,8.40
2019-04-21T12:27:25.668Z,7.47
2019-04-21T12:29:55.523Z,6.97
2019-04-21T12:32:38.054Z,7.13
2019-04-21T12:35:10.065Z,9.87
2019-04-21T12:37:40.643Z,7.37
2019-04-21T12:40:14.416Z,6.63
2019-04-21T12:42:45.406Z,7.07
2019-04-21T12:45:15.724Z,6.65
2019-04-21T12:47:48.311Z,6.57
2019-04-21T12:50:17.054Z,6.65
2019-04-21T12:52:47.355Z,7.47
2019-04-21T12:55:23.944Z,6.72
2019-04-21T12:57:53.171Z,7.72
2019-04-21T13:00:23.076Z,7.55
2019-04-21T13:02:52.325Z,5.95
2019-04-21T13:05:27.544Z,8.03
2019-04-21T13:07:59.552Z,7.70
2019-04-21T13:10:30.582Z,7.97
2019-04-21T13:13:01.787Z,8.53
2019-04-21T13:15:33.542Z,6.12
2019-04-21T13:18:02.852Z,7.08
2019-04-21T13:20:32.344Z,8.65
2019-04-21T13:23:01.906Z,7.42
2019-04-21T13:25:31.773Z,6.47
2019-04-21T13:28:01.000Z,6.40
2019-04-21T13:30:30.626Z,7.78
2019-04-21T13:33:00.840Z,7.95
2019-04-21T13:35:30.990Z,6.30
2019-04-21T13:38:00.689Z,6.22
2019-04-21T13:41:14.994Z,5.25
2019-04-21T13:43:30.777Z,7.40
2019-04-21T13:45:59.934Z,6.65
2019-04-21T13:48:30.592Z,5.95
2019-04-21T13:50:59.825Z,8.03
2019-04-21T13:53:29.275Z,7.83
2019-04-21T13:55:58.597Z,7.20
2019-04-21T13:58:28.598Z,7.40
2019-04-21T14:00:59.948Z,6.65
2019-04-21T14:03:31.024Z,8.65
2019-04-21T14:06:02.603Z,6.55
2019-04-21T14:08:33.512Z,7.37
2019-04-21T14:11:03.348Z,7.00
2019-04-21T14:13:34.165Z,5.50
2019-04-21T14:16:04.130Z,9.10
2019-04-21T14:18:36.491Z,6.35
2019-04-21T14:21:07.224Z,6.50
2019-04-21T14:23:43.386Z,6.85
2019-04-21T14:26:09.389Z,7.40
2019-04-21T14:28:38.917Z,8.20
2019-04-21T14:31:10.492Z,6.78
2019-04-21T14:33:45.933Z,7.08
2019-04-21T14:36:16.789Z,6.72
2019-04-21T14:38:46.934Z,7.80
2019-04-21T14:41:18.177Z,7.62
2019-04-21T14:43:55.110Z,6.30
2019-04-21T14:46:37.499Z,4.87
2019-04-21T14:49:37.524Z,7.85
2019-04-21T14:52:25.269Z,6.62
2019-04-21T14:55:19.009Z,7.50
2019-04-21T14:57:53.179Z,5.95
2019-04-21T15:00:29.108Z,5.20
2019-04-21T15:03:01.722Z,5.72
2019-04-21T15:05:33.485Z,6.72
2019-04-21T15:08:04.907Z,5.42
2019-04-21T15:10:35.206Z,5.97
2019-04-21T15:13:05.774Z,5.72
2019-04-21T15:15:38.039Z,5.47
2019-04-21T15:18:14.595Z,6.40
2019-04-21T15:20:45.720Z,6.22
2019-04-21T15:23:15.250Z,5.95
2019-04-21T15:25:46.011Z,6.40
2019-04-21T15:28:16.075Z,6.58
2019-04-21T15:30:47.113Z,4.72
2019-04-21T15:33:18.161Z,5.60
2019-04-21T15:35:49.088Z,5.67
2019-04-21T15:38:22.203Z,5.87
2019-04-21T15:40:57.215Z,4.97
2019-04-21T15:43:26.594Z,5.90
2019-04-21T15:45:58.280Z,5.50
2019-04-21T15:48:30.927Z,5.40
2019-04-21T15:51:05.664Z,7.00
2019-04-21T15:53:37.394Z,7.35
2019-04-21T15:56:15.219Z,6.47
2019-04-21T15:59:02.629Z,5.70
2019-04-21T16:01:46.417Z,6.15
2019-04-21T16:04:16.830Z,5.80
2019-04-21T16:06:47.829Z,6.70
2019-04-21T16:09:21.619Z,4.85
2019-04-21T16:11:49.713Z,5.20
2019-04-21T16:14:20.591Z,6.10
2019-04-21T16:16:51.857Z,5.28
2019-04-21T16:19:29.161Z,4.85
2019-04-21T16:22:01.003Z,6.33
2019-04-21T16:24:30.931Z,5.05
2019-04-21T16:27:04.941Z,5.83
2019-04-21T16:29:34.158Z,4.70
2019-04-21T16:32:09.111Z,6.10
2019-04-21T16:34:48.372Z,5.58
2019-04-21T16:37:10.130Z,5.05
2019-04-21T16:39:41.283Z,5.28
2019-04-21T16:42:12.493Z,6.87
2019-04-21T16:44:45.011Z,5.78
2019-04-21T16:47:14.213Z,4.22
2019-04-21T16:49:45.518Z,5.47
2019-04-21T16:52:23.761Z,6.60
2019-04-21T16:55:00.237Z,5.25
2019-04-21T16:57:59.478Z,4.33
2019-04-21T17:00:31.700Z,4.20
2019-04-21T17:02:58.795Z,6.45
2019-04-21T17:05:28.220Z,8.05
2019-04-21T17:07:57.973Z,5.17
2019-04-21T17:10:28.781Z,4.50
2019-04-21T17:12:59.905Z,4.53
2019-04-21T17:15:48.751Z,4.22
2019-04-21T17:18:20.774Z,6.28
2019-04-21T17:20:42.937Z,4.37
2019-04-21T17:23:05.369Z,3.87
2019-04-21T17:25:35.034Z,4.03
2019-04-21T17:28:05.940Z,4.30
2019-04-21T17:30:36.464Z,4.12
2019-04-21T17:33:11.250Z,5.03
2019-04-21T17:35:40.751Z,5.62
2019-04-21T17:38:14.070Z,4.90
2019-04-21T17:40:49.565Z,6.05
2019-04-21T17:43:20.250Z,4.55
2019-04-21T17:45:53.126Z,6.53
2019-04-21T17:48:27.272Z,5.65
2019-04-21T17:51:09.537Z,6.22
2019-04-21T17:53:51.958Z,6.45
2019-04-21T17:56:55.178Z,5.15
2019-04-21T17:59:23.664Z,5.62
2019-04-21T18:01:51.658Z,6.87
2019-04-21T18:04:27.933Z,5.90
2019-04-21T18:07:27.434Z,5.30
2019-04-21T18:12:36.224Z,6.00
2019-04-21T18:15:38.328Z,5.23
2019-04-21T18:18:08.477Z,4.13
2019-04-21T18:20:44.004Z,5.10
2019-04-21T18:23:50.517Z,5.43
2019-04-21T18:26:29.707Z,6.70
2019-04-21T18:28:47.024Z,4.47
2019-04-21T18:31:19.025Z,6.90
2019-04-21T18:34:17.431Z,8.77
2019-04-21T18:36:51.605Z,6.40
2019-04-21T18:39:39.256Z,10.33
2019-04-21T18:42:21.367Z,6.00
2019-04-21T18:45:34.430Z,5.13
2019-04-21T18:47:59.502Z,5.13
2019-04-21T18:51:00.508Z,5.70
2019-04-21T18:53:58.085Z,5.03
2019-04-21T18:56:20.615Z,6.73
2019-04-21T18:58:50.909Z,7.43
2019-04-21T19:01:27.525Z,6.13
2019-04-21T19:03:55.910Z,6.37
2019-04-21T19:06:42.440Z,7.27
2019-04-21T19:09:11.558Z,6.57
2019-04-21T19:11:42.554Z,5.57
2019-04-21T19:17:13.868Z,10.23
2019-04-21T19:19:39.361Z,6.73
2019-04-21T19:22:00.662Z,6.90
2019-04-21T19:27:06.217Z,8.53
2019-04-21T19:32:01.698Z,7.93
2019-04-21T19:34:23.729Z,8.77
2019-04-21T19:36:55.046Z,8.77
2019-04-21T19:39:36.187Z,8.27
2019-04-21T19:42:07.194Z,8.03
2019-04-21T19:44:45.443Z,8.30
2019-04-21T19:47:17.222Z,8.53
2019-04-21T19:49:49.520Z,12.10
2019-04-21T19:52:06.596Z,7.50
2019-04-21T19:54:39.717Z,10.33
2019-04-21T19:57:07.109Z,8.70
2019-04-21T19:59:44.672Z,7.67
2019-04-21T20:02:09.023Z,9.70
2019-04-21T20:04:48.433Z,9.57
2019-04-21T20:07:26.319Z,9.27
2019-04-21T20:10:03.424Z,11.43
2019-04-21T20:12:36.608Z,7.80
2019-04-21T20:15:10.824Z,8.27
2019-04-21T20:17:40.800Z,9.23
2019-04-21T20:19:49.978Z,9.63
2019-04-21T20:22:23.965Z,9.37
2019-04-21T20:24:58.615Z,9.97
2019-04-21T20:27:36.226Z,11.30
2019-04-21T20:30:16.048Z,11.57
2019-04-21T20:32:52.200Z,9.00
2019-04-21T20:35:26.660Z,9.63
2019-04-21T20:37:51.131Z,9.23
2019-04-21T20:40:23.274Z,9.77
2019-04-21T20:42:52.631Z,8.87
2019-04-21T20:47:48.011Z,8.87
2019-04-21T20:50:28.648Z,12.10
2019-04-21T20:53:07.226Z,9.83
2019-04-21T20:55:26.517Z,9.00
2019-04-21T20:57:56.547Z,11.70
2019-04-21T21:00:54.477Z,8.27
2019-04-21T21:03:13.558Z,12.20
2019-04-21T21:05:39.895Z,8.93
2019-04-21T21:08:20.017Z,11.03
2019-04-21T21:10:44.261Z,9.60
2019-04-21T21:13:28.389Z,11.73
2019-04-21T21:15:52.609Z,8.30
2019-04-21T21:18:38.469Z,11.57
2019-04-21T21:20:56.032Z,11.27
2019-04-21T21:23:14.442Z,12.50
2019-04-21T21:25:58.481Z,11.13
2019-04-21T21:28:22.710Z,11.37
2019-04-21T21:30:52.751Z,10.40
2019-04-21T21:33:25.710Z,13.57
2019-04-21T21:36:06.543Z,10.57
2019-04-21T21:38:40.889Z,9.90
2019-04-21T21:41:03.248Z,12.23
2019-04-21T21:43:30.968Z,10.30
2019-04-21T21:46:06.283Z,10.17
2019-04-21T21:48:50.070Z,11.47
2019-04-21T21:51:22.885Z,9.80
2019-04-21T21:53:45.826Z,15.10
2019-04-21T21:56:16.471Z,12.43
2019-04-21T21:58:48.139Z,9.27
2019-04-21T22:01:21.674Z,10.23
2019-04-21T22:04:04.857Z,11.30
2019-04-21T22:06:40.133Z,12.93
2019-04-21T22:09:06.150Z,9.53
2019-04-21T22:11:36.134Z,11.00
2019-04-21T22:14:17.075Z,12.87
2019-04-21T22:16:59.437Z,13.53
2019-04-21T22:19:33.984Z,10.33
2019-04-21T22:22:04.165Z,10.77
2019-04-21T22:24:35.138Z,10.77
2019-04-21T22:26:52.680Z,11.23
2019-04-21T22:29:23.411Z,10.87
2019-04-21T22:32:05.534Z,10.47
2019-04-21T22:34:30.267Z,9.27
2019-04-21T22:37:07.231Z,12.77
2019-04-21T22:39:44.918Z,10.80
2019-04-21T22:42:05.839Z,8.43
2019-04-21T22:44:32.246Z,11.13
2019-04-21T22:47:11.239Z,13.27
2019-04-21T22:49:32.610Z,11.30
2019-04-21T22:52:10.373Z,10.20
2019-04-21T22:54:37.982Z,9.90
2019-04-21T22:57:12.064Z,9.87
2019-04-21T22:59:37.343Z,7.87
2019-04-21T23:02:16.307Z,9.07
2019-04-21T23:04:48.858Z,11.27
2019-04-21T23:07:17.682Z,9.90
2019-04-21T23:09:49.504Z,9.90
2019-04-21T23:12:28.249Z,9.30
2019-04-21T23:15:01.854Z,12.27
2019-04-21T23:17:45.866Z,8.47
2019-04-21T23:20:19.913Z,8.33
2019-04-21T23:23:00.729Z,9.57
2019-04-21T23:25:25.299Z,9.97
2019-04-21T23:27:56.295Z,10.90
2019-04-21T23:30:37.658Z,11.53
2019-04-21T23:32:53.624Z,10.43
2019-04-21T23:35:21.838Z,10.23
2019-04-21T23:38:00.936Z,9.70
2019-04-21T23:40:27.838Z,11.33
2019-04-21T23:43:00.112Z,11.13
2019-04-21T23:45:36.188Z,10.03
2019-04-21T23:48:19.705Z,8.43
2019-04-21T23:50:45.016Z,11.90
2019-04-21T23:53:08.894Z,9.20
2019-04-21T23:55:39.068Z,9.40
2019-04-21T23:58:16.374Z,10.37
